createdAt,value
2023-01-12T00:02:17.179Z,100.00
2023-01-12T00:07:20.618Z,100.00
2023-01-12T00:12:23.043Z,100.00
2023-01-12T00:17:25.025Z,100.00
2023-01-12T00:22:27.279Z,100.00
2023-01-12T00:27:29.258Z,100.00
2023-01-12T00:32:31.330Z,100.00
2023-01-12T00:37:34.949Z,100.00
2023-01-12T00:42:55.525Z,100.00
2023-01-12T00:47:57.697Z,100.00
2023-01-12T00:52:59.712Z,100.00
2023-01-12T00:58:01.787Z,100.00
2023-01-12T01:03:03.936Z,100.00
2023-01-12T01:08:06.526Z,100.00
2023-01-12T01:13:08.553Z,100.00
2023-01-12T01:18:10.586Z,100.00
2023-01-12T01:23:12.621Z,100.00
2023-01-12T01:28:16.640Z,100.00
2023-01-12T01:33:18.670Z,100.00
2023-01-12T01:38:20.896Z,100.00
2023-01-12T01:43:26.640Z,100.00
2023-01-12T01:48:33.566Z,100.00
2023-01-12T01:53:39.812Z,100.00
2023-01-12T01:58:54.124Z,100.00
2023-01-12T02:03:57.610Z,100.00
2023-01-12T02:09:15.712Z,100.00
2023-01-12T02:14:36.358Z,100.00
2023-01-12T02:20:14.021Z,100.00
2023-01-12T02:25:22.159Z,100.00
2023-01-12T02:31:05.477Z,100.00
2023-01-12T02:36:33.003Z,100.00
2023-01-12T02:42:04.479Z,100.00
2023-01-12T02:47:17.983Z,100.00
2023-01-12T02:52:26.687Z,100.00
2023-01-12T02:57:31.577Z,100.00
2023-01-12T03:02:34.347Z,100.00
2023-01-12T03:07:39.338Z,100.00
2023-01-12T03:12:45.046Z,100.00
2023-01-12T03:18:15.594Z,100.00
2023-01-12T03:23:37.240Z,100.00
2023-01-12T03:28:45.700Z,100.00
2023-01-12T03:33:48.013Z,100.00
2023-01-12T03:39:07.241Z,100.00
2023-01-12T03:44:21.439Z,100.00
2023-01-12T03:50:17.959Z,100.00
2023-01-12T03:55:24.225Z,100.00
2023-01-12T04:00:29.276Z,100.00
2023-01-12T04:05:31.251Z,100.00
2023-01-12T04:10:33.338Z,100.00
2023-01-12T04:15:38.122Z,100.00
2023-01-12T04:20:40.598Z,100.00
2023-01-12T04:25:42.625Z,100.00
2023-01-12T04:30:44.676Z,100.00
2023-01-12T04:35:47.725Z,100.00
2023-01-12T04:40:55.281Z,100.00
2023-01-12T04:45:59.093Z,100.00
2023-01-12T04:51:01.537Z,100.00
2023-01-12T04:56:08.437Z,100.00
2023-01-12T05:01:17.576Z,100.00
2023-01-12T05:06:19.742Z,100.00
2023-01-12T05:11:29.555Z,100.00
2023-01-12T05:16:31.732Z,100.00
2023-01-12T05:21:34.013Z,100.00
2023-01-12T05:26:36.027Z,100.00
2023-01-12T05:31:38.266Z,100.00
2023-01-12T05:36:40.299Z,100.00
2023-01-12T05:42:02.303Z,100.00
2023-01-12T05:47:04.426Z,100.00
2023-01-12T05:52:06.569Z,100.00
2023-01-12T05:57:08.743Z,100.00
2023-01-12T06:02:13.903Z,100.00
2023-01-12T06:07:16.860Z,100.00
2023-01-12T06:12:37.481Z,100.00
2023-01-12T06:17:39.599Z,100.00
2023-01-12T06:22:41.655Z,100.00
2023-01-12T06:27:43.680Z,100.00
2023-01-12T06:32:45.689Z,100.00
2023-01-12T06:37:47.670Z,100.00
2023-01-12T06:42:50.500Z,100.00
2023-01-12T06:47:52.823Z,100.00
2023-01-12T06:52:55.839Z,100.00
2023-01-12T06:58:01.693Z,100.00
2023-01-12T07:03:03.955Z,100.00
2023-01-12T07:08:05.947Z,100.00
2023-01-12T07:13:08.146Z,100.00
2023-01-12T07:18:10.464Z,100.00
2023-01-12T07:23:13.946Z,100.00
2023-01-12T07:28:16.282Z,100.00
2023-01-12T07:33:18.809Z,100.00
2023-01-12T07:38:21.195Z,100.00
2023-01-12T07:43:23.711Z,100.00
2023-01-12T07:48:27.554Z,100.00
2023-01-12T07:53:29.885Z,100.00
2023-01-12T07:58:31.970Z,100.00
2023-01-12T08:03:34.015Z,100.00
2023-01-12T08:08:36.414Z,100.00
2023-01-12T08:13:40.761Z,100.00
2023-01-12T08:19:01.610Z,99.47
2023-01-12T08:24:06.399Z,100.00
2023-01-12T08:29:13.841Z,100.00
2023-01-12T08:34:16.022Z,100.00
2023-01-12T08:39:18.288Z,100.00
2023-01-12T08:44:21.439Z,100.00
2023-01-12T08:49:28.233Z,100.00
2023-01-12T08:54:30.309Z,100.00
2023-01-12T08:59:32.439Z,100.00
2023-01-12T09:04:34.612Z,100.00
2023-01-12T09:09:37.081Z,100.00
2023-01-12T09:14:39.368Z,100.00
2023-01-12T09:19:44.157Z,100.00
2023-01-12T09:24:46.211Z,100.00
2023-01-12T09:29:48.324Z,100.00
2023-01-12T09:34:50.449Z,100.00
2023-01-12T09:39:52.906Z,100.00
2023-01-12T09:45:13.815Z,100.00
2023-01-12T09:50:24.028Z,100.00
2023-01-12T09:55:34.618Z,100.00
2023-01-12T10:00:36.709Z,100.00
2023-01-12T10:05:58.133Z,100.00
2023-01-12T10:11:38.883Z,100.00
2023-01-12T10:17:25.583Z,98.55
2023-01-12T10:22:42.291Z,99.12
2023-01-12T10:27:48.130Z,98.86
2023-01-12T10:32:50.222Z,98.19
2023-01-12T10:37:56.281Z,97.36
2023-01-12T10:43:24.088Z,96.15
2023-01-12T10:48:26.905Z,94.74
2023-01-12T10:53:44.047Z,94.67
2023-01-12T10:59:02.574Z,95.83
2023-01-12T11:04:06.149Z,94.93
2023-01-12T11:09:27.104Z,96.00
2023-01-12T11:14:39.517Z,94.79
2023-01-12T11:19:45.850Z,95.06
2023-01-12T11:24:57.780Z,94.82
2023-01-12T11:30:18.591Z,94.96
2023-01-12T11:35:39.341Z,94.98
2023-01-12T11:40:44.252Z,94.99
2023-01-12T11:45:54.990Z,94.75
2023-01-12T11:51:00.556Z,94.07
2023-01-12T11:56:42.571Z,92.27
2023-01-12T12:02:00.910Z,94.08
2023-01-12T12:07:36.941Z,94.57
2023-01-12T12:13:00.683Z,94.84
2023-01-12T12:18:49.812Z,94.06
2023-01-12T12:24:10.915Z,95.34
2023-01-12T12:29:29.535Z,94.42
2023-01-12T12:34:34.509Z,94.85
2023-01-12T12:39:49.753Z,96.02
2023-01-12T12:45:16.825Z,94.81
2023-01-12T12:51:08.905Z,94.45
2023-01-12T12:56:15.804Z,95.27
2023-01-12T13:01:23.853Z,96.78
2023-01-12T13:06:35.197Z,97.15
2023-01-12T13:12:00.578Z,97.41
2023-01-12T13:17:19.443Z,100.00
2023-01-12T13:22:44.591Z,99.17
2023-01-12T13:27:56.815Z,100.00
2023-01-12T13:33:27.612Z,100.00
2023-01-12T13:38:38.637Z,100.00
2023-01-12T13:43:58.289Z,100.00
2023-01-12T13:49:02.436Z,100.00
2023-01-12T13:54:11.469Z,100.00
2023-01-12T13:59:18.658Z,100.00
2023-01-12T14:04:56.997Z,100.00
2023-01-12T14:10:23.157Z,100.00
2023-01-12T14:15:53.374Z,100.00
2023-01-12T14:20:58.143Z,100.00
2023-01-12T14:26:06.033Z,100.00
2023-01-12T14:31:19.407Z,100.00
2023-01-12T14:36:45.324Z,100.00
2023-01-12T14:42:09.827Z,100.00
2023-01-12T14:47:26.311Z,100.00
2023-01-12T14:52:33.541Z,100.00
2023-01-12T14:57:36.403Z,100.00
2023-01-12T15:02:41.482Z,100.00
2023-01-12T15:08:22.213Z,100.00
2023-01-12T15:13:33.669Z,100.00
2023-01-12T15:18:54.435Z,100.00
2023-01-12T15:24:16.491Z,100.00
2023-01-12T15:29:18.655Z,100.00
2023-01-12T15:34:20.758Z,100.00
2023-01-12T15:39:23.217Z,100.00
2023-01-12T15:44:25.972Z,100.00
2023-01-12T15:49:30.907Z,100.00
2023-01-12T15:54:33.003Z,100.00
2023-01-12T15:59:35.115Z,100.00
2023-01-12T16:04:43.524Z,100.00
2023-01-12T16:09:47.879Z,100.00
2023-01-12T16:14:50.199Z,100.00
2023-01-12T16:19:53.013Z,100.00
2023-01-12T16:24:57.910Z,100.00
2023-01-12T16:30:00.104Z,100.00
2023-01-12T16:35:02.219Z,100.00
2023-01-12T16:40:04.902Z,100.00
2023-01-12T16:45:07.708Z,100.00
2023-01-12T16:50:10.048Z,100.00
2023-01-12T16:55:12.101Z,100.00
2023-01-12T17:00:15.699Z,100.00
2023-01-12T17:05:17.857Z,100.00
2023-01-12T17:10:20.083Z,100.00
2023-01-12T17:15:22.668Z,100.00
2023-01-12T17:20:24.975Z,100.00
2023-01-12T17:25:27.587Z,100.00
2023-01-12T17:30:29.616Z,100.00
2023-01-12T17:35:35.196Z,100.00
2023-01-12T17:40:40.208Z,100.00
2023-01-12T17:45:43.657Z,100.00
2023-01-12T17:50:47.291Z,100.00
2023-01-12T17:55:50.968Z,100.00
2023-01-12T18:00:54.135Z,100.00
2023-01-12T18:06:04.579Z,100.00
2023-01-12T18:11:09.612Z,100.00
2023-01-12T18:16:14.618Z,99.86
2023-01-12T18:21:21.487Z,99.36
2023-01-12T18:26:31.011Z,99.38
2023-01-12T18:31:38.050Z,99.31
2023-01-12T18:36:41.561Z,99.32
2023-01-12T18:42:02.825Z,98.26
2023-01-12T18:47:23.897Z,98.37
2023-01-12T18:52:44.989Z,97.07
2023-01-12T18:57:47.009Z,96.34
2023-01-12T19:02:49.168Z,95.32
2023-01-12T19:07:57.260Z,95.74
2023-01-12T19:13:19.613Z,95.96
2023-01-12T19:18:21.888Z,95.46
2023-01-12T19:23:42.584Z,94.16
2023-01-12T19:28:44.786Z,94.09
2023-01-12T19:33:46.851Z,94.76
2023-01-12T19:38:51.305Z,93.46
2023-01-12T19:43:53.684Z,93.78
2023-01-12T19:48:55.935Z,94.24
2023-01-12T19:53:57.941Z,94.50
2023-01-12T19:59:00.112Z,95.00
2023-01-12T20:04:02.647Z,94.57
2023-01-12T20:09:04.833Z,94.13
2023-01-12T20:14:07.306Z,93.63
2023-01-12T20:19:09.372Z,94.13
2023-01-12T20:24:11.622Z,92.92
2023-01-12T20:29:14.069Z,94.06
2023-01-12T20:34:16.254Z,94.33
2023-01-12T20:39:18.321Z,95.23
2023-01-12T20:44:20.817Z,95.22
2023-01-12T20:49:23.630Z,95.83
2023-01-12T20:54:26.007Z,95.83
2023-01-12T20:59:28.405Z,95.58
2023-01-12T21:04:31.334Z,95.43
2023-01-12T21:09:33.415Z,95.16
2023-01-12T21:14:36.123Z,94.64
2023-01-12T21:19:38.313Z,93.96
2023-01-12T21:24:40.395Z,94.99
2023-01-12T21:29:42.631Z,95.75
2023-01-12T21:34:44.841Z,95.17
2023-01-12T21:39:46.840Z,96.11
2023-01-12T21:44:49.132Z,95.85
2023-01-12T21:49:51.370Z,96.05
2023-01-12T21:54:53.733Z,96.42
2023-01-12T21:59:55.972Z,96.72
2023-01-12T22:04:58.017Z,96.49
2023-01-12T22:10:19.088Z,96.83
2023-01-12T22:15:23.179Z,96.75
2023-01-12T22:20:27.911Z,96.59
2023-01-12T22:25:30.006Z,95.83
2023-01-12T22:30:32.040Z,95.61
2023-01-12T22:35:34.232Z,96.01
2023-01-12T22:40:36.409Z,95.35
2023-01-12T22:45:38.963Z,94.62
2023-01-12T22:50:41.151Z,94.99
2023-01-12T22:55:43.264Z,94.91
2023-01-12T23:00:45.715Z,95.04
2023-01-12T23:05:56.086Z,94.83
2023-01-12T23:11:18.670Z,94.97
2023-01-12T23:16:21.200Z,95.48
2023-01-12T23:21:28.875Z,95.08
2023-01-12T23:26:32.921Z,96.71
2023-01-12T23:31:35.172Z,97.34
2023-01-12T23:36:37.649Z,98.47
2023-01-12T23:41:40.023Z,98.27
2023-01-12T23:46:43.198Z,97.05
2023-01-12T23:51:45.204Z,97.24
2023-01-12T23:56:54.787Z,97.26
